ENXO weather

Ringhorne Platform
Norway

Public forecast

Using degrees Celsius for public forecast. Weather courtesy of forecast.io.

Closest aviation weather report (METAR) to Ringhorne Platform

Closest report is Ula Platform, 15.4 nm (28.4 km) SE. Retrieved 2019/10/23 09:20 UTC (2 minutes ago):

ENLA 230920Z AUTO 20010G21KT 9999NDV BKN160/// 11/08 Q1011 W///S5

Closest aviation forecast (TAF) to Ringhorne Platform

Closest forecast is Oseberg A Platform, 74.4 nm (137.8 km) N. Retrieved 2019/10/23 09:57 UTC (0 seconds ago):

TAF TAF ENOA 230800Z 2309/2409 20028KT 9000 FEW005 BKN015 TEMPO 2309/2320 3000 RADZ BR BKN008 BECMG 2317/2319 18038KT